Aniak, AK (99557)

3:01 AM AKDT on August 29, 2014 (GMT -0800)
Aniak | Change Station
CLOSE
Current Station
Airport
Location: Aniak,
Elevation: 85 ft
Nearby Weather Stations

Elev 85 ft 61.58 °N, 159.54 °W | Updated 5 minutes ago

Overcast
Overcast
48 °F
Feels Like 48 °F
N
6
Wind Variable Wind from NW

Today
High -- | Low -- °F
--% Chance of Precip.
Yesterday
High -- | Low -- °F
Precip. -- in
7:21 AM 9:54 PM
Waxing Crescent, 13% visible
Pressure 29.72 in
Visibility 10.0 miles
Clouds Scattered Clouds 2900 ft
Mostly Cloudy 3300 ft
Overcast 5000 ft
Dew Point 45 °F
Humidity 87%
Rainfall 0.05 in
Snow Depth Not available.
UV 0 out of 12
Pollen Not available.
Air Quality Not available.
Flu Activity Not available.
METAR PANI 291056Z AUTO 31005KT 10SM SCT029 BKN033 OVC050 09/07 A2972 RMK AO1

More Conditions Fewer Conditions

Pressure 29.72 in
Visibility 10.0 miles
Clouds Scattered Clouds 2900 ft
Mostly Cloudy 3300 ft
Overcast 5000 ft
Dew Point 45 °F
Humidity 87%
Rainfall 0.05 in
Snow Depth Not available.
UV 0 out of 12
Pollen Not available.
Air Quality Not available.
Flu Activity Not available.
METAR PANI 291056Z AUTO 31005KT 10SM SCT029 BKN033 OVC050 09/07 A2972 RMK AO1

More Conditions Fewer Conditions

10-Day Weather Forecast

Almanac

Astronomy

Aug. 29, 2014 Rise Set
Actual Time 7:21 AM AKDT 9:54 PM AKDT
Civil Twilight 6:32 AM AKDT 10:42 PM AKDT
Nautical Twilight 5:26 AM AKDT 11:47 PM AKDT
Astronomical Twilight 3:44 AM AKDT 1:24 AM AKDT
Moon 12:42 PM AKDT 10:33 PM AKDT
Length of Visible Light 16h 09m
Length of Day
14h 32m
Tomorrow will be 5m 44s shorter.
Waxing Crescent, 13% of the Moon is Illuminated
Today
Waxing Crescent
Sep 2
First Quarter
Sep 8
Full
Sep 15
Last Quarter
Sep 24
New

Today's Extremes

State Highs State Lows

Community

WunderPhotos

Upload Photos

1,748,211 photos uploaded!

Nearby

Snow Depth

Station Depth Elevation
Rocky Point 5 in 500 ft
Mcneil Canyon 1 in 1320 ft
Port Graham 0 in 300 ft
Susitna Valley High 109 in 375 ft
Point Mackenzie 1 in 200 ft

Earthquake Activity

City Distance Mag. Time & Date
No recent earthquake activity has been reported nearby.
Minimum magnitude displayed is 2.5.

Coastal Water Temperatures

Place Temperature
No Stations Reporting

Nearby Weather Stations